Rennie, Canada
Current Conditions -  °F | °C
As of 3:14 PM on Saturday 22 Nov 2014 (Local Time) from KFGN Reporting Station
Overcast Overcast  
Wind Chill: 30°   Ceiling: 900
Heat Index: 34°   Visibility: 10mi
Dew Point: 28°   Wind: 5mph
Humidity: 81%   Direction: 110°ESE
Pressure: 29.53"   Gusts: NA
Location:  49.85°N, 95.55°W
Report Text: KFGN 222114Z AUTO 11004KT 10SM OVC009 01/M02 A2953 RMK AO2
Loading
Personal Weather Stations






























Interactive Weather Map New forecast layout! Learn more

10-Day Weather Forecast

Advertisements
Track Severe Weather on mobile